West Baffin - northern half: Past 24 Hour Conditions

 

Coral Harbour Airport

05:00 AM EST 20 April 2014
This table is a summary of hourly weather conditions for the past 24 hours.
Date / Time
(EST)
Wind(knots) Conditions Visibility(km) Pressure(kPa) Air tempC) Relative humidity(%) Dew pointC) Wind Chill
20 April 2014
5:00 NNW 15 Sunny 24 101.6 -18 78 -21 -29
4:00 NW 14 Clear 24 101.6 -19 78 -22 -31
3:00 NW 13 Clear 24 101.7 -19 78 -22 -31
2:00 N/A N/A N/A N/A N/A N/A N/A *
1:00 NW 10 Clear 24 101.7 -19 77 -22 -29
0:00 NW 12 Clear 24 101.7 -16 78 -19 -26
19 April 2014
23:00 N/A N/A N/A N/A N/A N/A N/A *
22:00 NW 14 Clear 24 101.7 -10 77 -13 -19
21:00 NNW 12 Clear 24 101.7 -10 75 -14 -19
20:00 WNW 9 Sunny 24 101.7 -10 75 -13 -17
19:00 NNW 7 Mainly Sunny 24 101.8 -8 72 -12 -14
18:00 W 11 Mainly Sunny 24 101.7 -7 72 -11 -15
17:00 NNW 14 Mainly Sunny 24 101.7 -6 70 -11 -14
16:00 NW 13 Mainly Sunny 24 101.7 -6 70 -11 -14
15:00 NNW 13 Mainly Sunny 24 101.7 -6 69 -11 -14
14:00 NW 14 Mainly Sunny 24 101.6 -7 68 -12 -15
13:00 NW 9 Mainly Sunny 24 101.6 -7 69 -11 -13
12:00 NNW 12 Mainly Sunny 24 101.6 -7 69 -12 -14
11:00 NW 9 Mainly Sunny 24 101.6 -8 69 -13 -15
10:00 N 10 gust 19 Drifting Snow 19 101.6 -9 70 -14 -17
9:00 WNW 17 gust 27 Drifting Snow 19 101.6 -11 75 -15 -21
8:00 NW 17 gust 24 Drifting Snow 19 101.6 -10 70 -15 -20
7:00 NW 14 Drifting Snow 19 101.6 -13 73 -17 -23
6:00 N 17 Light Snow 13 101.6 -13 78 -16 -24
5:00 WNW 22 Light Snow 10 101.6 -14 77 -17 -26
 
Map of Arctic - Eastern Arctic marine weather areas Baker Lake Airport Chesterfield Inlet Airport Coral Harbour Airport Gjoa Haven Airport Kugaaruk Airport Rankin Inlet Airport Shepherd Bay Airport Whale Cove Airport Arctic Bay Brevoort Island Qikiqtarjuaq Airport Cape Dorset Airport Cape Dyer Cape Hooper Clyde Airport Grise Fiord Airport Hall Beach Airport Igloolik Airport Iqaluit Airport Longstaff Bluff Pangnirtung Airport Pond Inlet Airport Repulse Bay Airport Resolute Airport Resolution Island Rowley Island Airport Taloyoak Airport Wager Bay Akulivik Airport Ivujivik Airport Puvirnituq Airport Kangiqsujuaq Airport Kangirsuk Airport Quaqtaq Airport Tasiujaq Airport Cape Kakkiviak Cape Kiglapait Nain Airport Saglek Cape Mercy Kimmirut Airport Aupaluk Airport Salluit Airport Kangiqsualujjuaq Airport Fort Ross
Legend: buoyBuoy land stationLand Station